createdAt,value
2018-06-22T00:00:40.789Z,88.17
2018-06-22T00:01:40.852Z,87.96
2018-06-22T00:02:40.850Z,87.93
2018-06-22T00:03:40.762Z,88.09
2018-06-22T00:04:40.764Z,88.07
2018-06-22T00:05:40.856Z,87.74
2018-06-22T00:06:40.779Z,87.61
2018-06-22T00:07:40.859Z,87.56
2018-06-22T00:08:40.855Z,87.13
2018-06-22T00:09:40.854Z,86.65
2018-06-22T00:10:40.764Z,86.25
2018-06-22T00:11:40.765Z,86.01
2018-06-22T00:12:40.784Z,85.99
2018-06-22T00:13:40.854Z,85.77
2018-06-22T00:14:40.872Z,85.50
2018-06-22T00:15:40.788Z,85.50
2018-06-22T00:16:40.852Z,85.61
2018-06-22T00:17:40.789Z,85.56
2018-06-22T00:18:40.879Z,85.46
2018-06-22T00:19:40.801Z,85.48
2018-06-22T00:20:40.798Z,85.61
2018-06-22T00:21:40.873Z,85.35
2018-06-22T00:22:40.805Z,85.30
2018-06-22T00:23:40.868Z,85.13
2018-06-22T00:24:40.809Z,85.03
2018-06-22T00:25:40.807Z,85.00
2018-06-22T00:26:40.875Z,85.00
2018-06-22T00:27:40.808Z,85.00
2018-06-22T00:28:40.812Z,84.92
2018-06-22T00:29:40.877Z,85.00
2018-06-22T00:30:40.888Z,84.68
2018-06-22T00:31:40.856Z,84.60
2018-06-22T00:32:40.832Z,84.52
2018-06-22T00:33:40.938Z,84.66
2018-06-22T00:34:40.784Z,84.63
2018-06-22T00:35:40.913Z,84.50
2018-06-22T00:36:40.815Z,84.39
2018-06-22T00:37:40.800Z,84.39
2018-06-22T00:38:40.901Z,84.39
2018-06-22T00:39:40.915Z,84.39
2018-06-22T00:40:40.908Z,84.44
2018-06-22T00:41:40.894Z,84.34
2018-06-22T00:42:40.937Z,84.58
2018-06-22T00:43:40.788Z,84.66
2018-06-22T00:44:40.844Z,84.79
2018-06-22T00:45:40.803Z,84.71
2018-06-22T00:46:40.882Z,84.95
2018-06-22T00:47:40.901Z,85.08
2018-06-22T00:48:40.793Z,85.27
2018-06-22T00:49:40.822Z,85.27
2018-06-22T00:50:40.823Z,85.30
2018-06-22T00:51:40.890Z,85.21
2018-06-22T00:52:40.892Z,85.05
2018-06-22T00:53:40.822Z,85.16
2018-06-22T00:54:40.882Z,85.11
2018-06-22T00:55:40.821Z,84.95
2018-06-22T00:56:40.897Z,85.08
2018-06-22T00:57:40.994Z,84.95
2018-06-22T00:58:40.901Z,84.87
2018-06-22T00:59:40.848Z,84.89
2018-06-22T01:00:40.873Z,85.00
2018-06-22T01:01:40.885Z,84.97
2018-06-22T01:02:40.888Z,85.13
2018-06-22T01:03:40.825Z,85.27
2018-06-22T01:04:40.773Z,85.48
2018-06-22T01:05:40.854Z,85.50
2018-06-22T01:06:40.765Z,85.58
2018-06-22T01:07:40.885Z,85.77
2018-06-22T01:08:40.890Z,85.24
2018-06-22T01:09:40.928Z,85.32
2018-06-22T01:10:40.924Z,85.24
2018-06-22T01:11:40.856Z,84.79
2018-06-22T01:12:40.825Z,84.66
2018-06-22T01:13:40.922Z,84.42
2018-06-22T01:14:40.941Z,84.60
2018-06-22T01:15:40.843Z,84.81
2018-06-22T01:16:40.904Z,85.24
2018-06-22T01:17:40.937Z,85.43
2018-06-22T01:18:40.874Z,85.75
2018-06-22T01:19:40.837Z,86.09
2018-06-22T01:20:40.779Z,86.22
2018-06-22T01:21:40.834Z,86.41
2018-06-22T01:22:40.779Z,86.52
2018-06-22T01:23:40.799Z,86.57
2018-06-22T01:24:40.901Z,86.28
2018-06-22T01:25:40.803Z,86.15
2018-06-22T01:26:40.863Z,86.25
2018-06-22T01:27:40.782Z,86.57
2018-06-22T01:28:40.780Z,86.63
2018-06-22T01:29:40.835Z,86.63
2018-06-22T01:30:40.905Z,86.60
2018-06-22T01:31:40.905Z,86.60
2018-06-22T01:32:40.839Z,86.25
2018-06-22T01:33:40.786Z,86.17
2018-06-22T01:34:40.914Z,86.01
2018-06-22T01:35:40.839Z,86.15
2018-06-22T01:36:40.789Z,86.17
2018-06-22T01:37:40.846Z,86.22
2018-06-22T01:38:40.904Z,86.38
2018-06-22T01:39:40.920Z,86.52
2018-06-22T01:40:40.852Z,86.71
2018-06-22T01:41:40.922Z,86.79
2018-06-22T01:42:40.860Z,87.05
2018-06-22T01:43:40.856Z,87.24
2018-06-22T01:44:40.857Z,87.45
2018-06-22T01:45:40.926Z,87.43
2018-06-22T01:46:40.882Z,87.59
2018-06-22T01:47:40.931Z,87.80
2018-06-22T01:48:40.928Z,87.93
2018-06-22T01:49:40.940Z,88.01
2018-06-22T01:50:40.929Z,88.25
2018-06-22T01:51:40.934Z,88.41
2018-06-22T01:52:40.861Z,88.50
2018-06-22T01:53:40.865Z,88.54
2018-06-22T01:54:40.861Z,88.71
2018-06-22T01:55:40.938Z,88.76
2018-06-22T01:56:40.868Z,88.60
2018-06-22T01:57:40.864Z,88.65
2018-06-22T01:58:40.937Z,88.68
2018-06-22T01:59:40.852Z,88.52
2018-06-22T02:00:40.906Z,88.33
2018-06-22T02:01:40.916Z,88.31
2018-06-22T02:02:40.965Z,88.46
2018-06-22T02:03:40.975Z,88.60
2018-06-22T02:04:40.861Z,88.50
2018-06-22T02:05:40.960Z,88.31
2018-06-22T02:06:40.896Z,88.01
2018-06-22T02:07:40.842Z,87.74
2018-06-22T02:08:40.909Z,87.56
2018-06-22T02:09:40.872Z,86.76
2018-06-22T02:10:40.943Z,86.89
2018-06-22T02:11:40.878Z,86.97
2018-06-22T02:12:40.944Z,87.10
2018-06-22T02:13:40.943Z,87.16
2018-06-22T02:14:40.878Z,87.16
2018-06-22T02:15:40.944Z,86.87
2018-06-22T02:16:40.946Z,86.84
2018-06-22T02:17:40.944Z,86.46
2018-06-22T02:18:40.915Z,86.63
2018-06-22T02:19:40.991Z,86.79
2018-06-22T02:20:40.905Z,86.68
2018-06-22T02:21:40.872Z,86.68
2018-06-22T02:22:40.915Z,86.52
2018-06-22T02:23:40.989Z,86.33
2018-06-22T02:24:40.952Z,86.52
2018-06-22T02:25:40.925Z,86.01
2018-06-22T02:26:40.930Z,86.01
2018-06-22T02:27:41.091Z,86.15
2018-06-22T02:28:40.955Z,86.17
2018-06-22T02:29:40.952Z,86.09
2018-06-22T02:30:40.953Z,85.77
2018-06-22T02:31:40.858Z,85.88
2018-06-22T02:32:40.924Z,85.69
2018-06-22T02:33:40.893Z,85.93
2018-06-22T02:34:40.956Z,86.15
2018-06-22T02:35:40.866Z,86.17
2018-06-22T02:36:40.957Z,86.22
2018-06-22T02:37:40.960Z,86.30
2018-06-22T02:38:40.991Z,86.57
2018-06-22T02:39:40.962Z,86.49
2018-06-22T02:40:40.963Z,86.15
2018-06-22T02:41:40.973Z,85.80
2018-06-22T02:42:40.896Z,85.93
2018-06-22T02:43:40.897Z,86.54
2018-06-22T02:44:40.898Z,87.08
2018-06-22T02:45:40.904Z,86.97
2018-06-22T02:46:40.988Z,87.05
2018-06-22T02:47:40.965Z,86.73
2018-06-22T02:48:40.901Z,86.30
2018-06-22T02:49:40.966Z,86.44
2018-06-22T02:50:40.903Z,86.52
2018-06-22T02:51:40.971Z,86.54
2018-06-22T02:52:40.907Z,86.71
2018-06-22T02:53:40.971Z,86.94
2018-06-22T02:54:40.907Z,86.76
2018-06-22T02:55:40.972Z,86.68
2018-06-22T02:56:40.999Z,86.63
2018-06-22T02:57:40.977Z,86.84
2018-06-22T02:58:40.908Z,87.10
2018-06-22T02:59:40.916Z,87.08
2018-06-22T03:00:40.939Z,87.80
2018-06-22T03:01:40.913Z,88.01
2018-06-22T03:02:40.849Z,87.88
2018-06-22T03:03:40.899Z,88.36
2018-06-22T03:04:40.973Z,88.73
2018-06-22T03:05:40.973Z,89.43
2018-06-22T03:06:40.905Z,90.09
2018-06-22T03:07:40.981Z,90.07
2018-06-22T03:08:40.889Z,90.47
2018-06-22T03:09:40.974Z,90.45
2018-06-22T03:10:41.003Z,90.90
2018-06-22T03:11:40.957Z,91.47
2018-06-22T03:12:41.001Z,91.38
2018-06-22T03:13:40.983Z,91.44
2018-06-22T03:14:40.981Z,91.14
2018-06-22T03:15:40.907Z,91.47
2018-06-22T03:16:41.020Z,91.60
2018-06-22T03:17:40.983Z,91.49
2018-06-22T03:18:41.012Z,91.22
2018-06-22T03:19:41.020Z,90.71
2018-06-22T03:20:40.890Z,90.93
2018-06-22T03:21:40.907Z,90.98
2018-06-22T03:22:40.979Z,91.20
2018-06-22T03:23:40.932Z,91.38
2018-06-22T03:24:40.896Z,91.60
2018-06-22T03:25:40.935Z,91.73
2018-06-22T03:26:40.911Z,91.76
2018-06-22T03:27:40.916Z,91.52
2018-06-22T03:28:40.987Z,91.52
2018-06-22T03:29:40.987Z,91.22
2018-06-22T03:30:40.893Z,91.14
2018-06-22T03:31:40.962Z,91.17
2018-06-22T03:32:41.024Z,90.98
2018-06-22T03:33:40.896Z,91.03
2018-06-22T03:34:41.025Z,90.90
2018-06-22T03:35:40.996Z,90.90
2018-06-22T03:36:40.920Z,91.17
2018-06-22T03:37:40.903Z,91.55
2018-06-22T03:38:40.904Z,91.97
2018-06-22T03:39:41.025Z,91.76
2018-06-22T03:40:41.009Z,91.17
2018-06-22T03:41:40.899Z,90.88
2018-06-22T03:42:40.996Z,90.80
2018-06-22T03:43:40.963Z,91.38
2018-06-22T03:44:40.981Z,91.41
2018-06-22T03:45:40.920Z,91.65
2018-06-22T03:46:40.966Z,91.79
2018-06-22T03:47:41.044Z,91.65
2018-06-22T03:48:41.023Z,92.51
2018-06-22T03:49:41.007Z,92.97
2018-06-22T03:50:41.052Z,92.51
2018-06-22T03:51:41.035Z,92.46
2018-06-22T03:52:41.014Z,92.73
2018-06-22T03:53:40.987Z,93.10
2018-06-22T03:54:41.084Z,93.13
2018-06-22T03:55:41.039Z,93.32
2018-06-22T03:56:41.033Z,92.97
2018-06-22T03:57:41.058Z,92.73
2018-06-22T03:58:40.913Z,92.51
2018-06-22T03:59:40.976Z,92.40
2018-06-22T04:00:41.034Z,92.22
2018-06-22T04:01:41.055Z,92.62
2018-06-22T04:02:40.935Z,92.70
2018-06-22T04:03:41.021Z,92.57
2018-06-22T04:04:40.922Z,92.68
2018-06-22T04:05:41.114Z,92.38
2018-06-22T04:06:41.012Z,91.97
2018-06-22T04:07:41.050Z,92.51
2018-06-22T04:08:41.062Z,92.86
2018-06-22T04:09:40.923Z,93.10
2018-06-22T04:10:41.017Z,93.24
2018-06-22T04:11:41.019Z,93.75
2018-06-22T04:12:41.020Z,94.15
2018-06-22T04:13:41.000Z,93.91
2018-06-22T04:14:41.037Z,93.96
2018-06-22T04:15:40.955Z,94.15
2018-06-22T04:16:41.025Z,94.23
2018-06-22T04:17:41.022Z,94.37
2018-06-22T04:18:40.956Z,94.83
2018-06-22T04:19:41.054Z,94.59
2018-06-22T04:20:40.979Z,94.83
2018-06-22T04:21:41.014Z,95.47
2018-06-22T04:22:40.992Z,95.69
2018-06-22T04:23:40.979Z,96.04
2018-06-22T04:24:40.976Z,96.39
2018-06-22T04:25:40.911Z,96.64
2018-06-22T04:26:40.914Z,96.80
2018-06-22T04:27:40.983Z,97.02
2018-06-22T04:28:41.020Z,97.04
2018-06-22T04:29:41.021Z,96.85
2018-06-22T04:30:40.980Z,96.53
2018-06-22T04:31:40.957Z,96.45
2018-06-22T04:32:41.023Z,96.42
2018-06-22T04:33:41.027Z,96.50
2018-06-22T04:34:40.933Z,96.64
2018-06-22T04:35:40.992Z,97.02
2018-06-22T04:36:40.972Z,97.10
2018-06-22T04:37:41.018Z,96.93
2018-06-22T04:38:40.935Z,96.69
2018-06-22T04:39:40.973Z,96.42
2018-06-22T04:40:41.007Z,96.04
2018-06-22T04:41:41.058Z,95.88
2018-06-22T04:42:41.097Z,95.77
2018-06-22T04:43:41.015Z,95.77
2018-06-22T04:44:40.938Z,96.13
2018-06-22T04:45:41.068Z,96.28
2018-06-22T04:46:41.079Z,96.42
2018-06-22T04:47:41.127Z,96.47
2018-06-22T04:48:41.069Z,96.50
2018-06-22T04:49:41.003Z,96.34
2018-06-22T04:50:41.045Z,96.15
2018-06-22T04:51:40.973Z,96.09
2018-06-22T04:52:41.021Z,95.83
2018-06-22T04:53:41.024Z,95.69
2018-06-22T04:54:41.016Z,95.85
2018-06-22T04:55:41.082Z,95.98
2018-06-22T04:56:41.049Z,96.02
2018-06-22T04:57:40.977Z,95.94
2018-06-22T04:58:41.092Z,95.88
2018-06-22T04:59:41.018Z,95.91
2018-06-22T05:00:40.988Z,96.07
2018-06-22T05:01:40.984Z,95.91
2018-06-22T05:02:41.016Z,95.83
2018-06-22T05:03:41.088Z,95.85
2018-06-22T05:04:41.202Z,95.85
2018-06-22T05:05:41.011Z,95.75
2018-06-22T05:06:41.058Z,95.75
2018-06-22T05:07:40.986Z,95.53
2018-06-22T05:08:41.055Z,95.64
2018-06-22T05:09:41.056Z,95.88
2018-06-22T05:10:40.991Z,95.88
2018-06-22T05:11:41.049Z,95.75
2018-06-22T05:12:40.964Z,95.66
2018-06-22T05:13:40.983Z,95.50
2018-06-22T05:14:40.988Z,95.34
2018-06-22T05:15:41.062Z,95.37
2018-06-22T05:16:41.060Z,95.39
2018-06-22T05:17:41.053Z,95.39
2018-06-22T05:18:41.047Z,95.15
2018-06-22T05:19:41.053Z,95.28
2018-06-22T05:20:40.974Z,95.42
2018-06-22T05:21:41.056Z,95.45
2018-06-22T05:22:40.947Z,95.42
2018-06-22T05:23:40.971Z,95.39
2018-06-22T05:24:41.063Z,95.07
2018-06-22T05:25:41.018Z,95.12
2018-06-22T05:26:41.059Z,95.58
2018-06-22T05:27:40.957Z,95.72
2018-06-22T05:28:40.977Z,95.94
2018-06-22T05:29:40.982Z,96.20
2018-06-22T05:30:41.063Z,96.02
2018-06-22T05:31:41.062Z,96.02
2018-06-22T05:32:41.062Z,96.28
2018-06-22T05:33:40.940Z,96.69
2018-06-22T05:34:40.943Z,96.61
2018-06-22T05:35:41.009Z,96.50
2018-06-22T05:36:40.969Z,96.50
2018-06-22T05:37:41.002Z,96.61
2018-06-22T05:38:40.979Z,96.91
2018-06-22T05:39:41.066Z,97.12
2018-06-22T05:40:41.045Z,97.15
2018-06-22T05:41:40.978Z,97.34
2018-06-22T05:42:41.042Z,97.58
2018-06-22T05:43:40.984Z,97.66
2018-06-22T05:44:41.083Z,97.47
2018-06-22T05:45:41.064Z,97.47
2018-06-22T05:46:41.060Z,97.72
2018-06-22T05:47:41.099Z,97.99
2018-06-22T05:48:41.122Z,98.31
2018-06-22T05:49:41.064Z,98.40
2018-06-22T05:50:41.112Z,98.42
2018-06-22T05:51:41.016Z,98.37
2018-06-22T05:52:41.085Z,98.42
2018-06-22T05:53:41.061Z,98.48
2018-06-22T05:54:41.018Z,98.77
2018-06-22T05:55:41.086Z,99.07
2018-06-22T05:56:41.083Z,99.21
2018-06-22T05:57:41.094Z,99.37
2018-06-22T05:58:41.027Z,99.40
2018-06-22T05:59:41.096Z,99.53
2018-06-22T06:00:41.118Z,99.48
2018-06-22T06:01:41.060Z,99.59
2018-06-22T06:02:41.001Z,99.51
2018-06-22T06:03:41.059Z,99.48
2018-06-22T06:04:41.097Z,99.59
2018-06-22T06:05:41.080Z,99.72
2018-06-22T06:06:41.057Z,99.86
2018-06-22T06:07:41.097Z,99.92
2018-06-22T06:08:41.038Z,99.99
2018-06-22T06:09:41.036Z,99.99
2018-06-22T06:10:41.093Z,99.99
2018-06-22T06:11:41.007Z,99.99
2018-06-22T06:12:41.111Z,99.99
2018-06-22T06:13:41.009Z,99.99
2018-06-22T06:14:41.103Z,99.99
2018-06-22T06:15:40.973Z,99.99
2018-06-22T06:16:41.054Z,99.99
2018-06-22T06:17:41.007Z,99.99
2018-06-22T06:18:41.011Z,99.99
2018-06-22T06:19:41.094Z,99.99
2018-06-22T06:20:41.125Z,99.99
2018-06-22T06:21:40.990Z,99.94
2018-06-22T06:22:41.101Z,99.89
2018-06-22T06:23:41.096Z,99.99
2018-06-22T06:24:40.995Z,99.99
2018-06-22T06:25:40.991Z,99.99
2018-06-22T06:26:41.015Z,99.99
2018-06-22T06:27:41.099Z,99.99
2018-06-22T06:28:41.014Z,99.99
2018-06-22T06:29:41.014Z,99.99
2018-06-22T06:30:41.057Z,99.99
2018-06-22T06:31:41.015Z,99.99
2018-06-22T06:32:41.139Z,99.99
2018-06-22T06:33:41.166Z,99.99
2018-06-22T06:34:41.051Z,99.99
2018-06-22T06:35:41.090Z,99.99
2018-06-22T06:36:41.089Z,99.99
2018-06-22T06:37:41.074Z,99.99
2018-06-22T06:38:41.080Z,99.99
2018-06-22T06:39:41.155Z,99.99
2018-06-22T06:40:41.149Z,99.99
2018-06-22T06:41:41.145Z,99.99
2018-06-22T06:42:41.020Z,99.99
2018-06-22T06:43:41.147Z,99.99
2018-06-22T06:44:41.121Z,99.99
2018-06-22T06:45:41.163Z,99.99
2018-06-22T06:46:41.144Z,99.99
2018-06-22T06:47:41.164Z,99.99
2018-06-22T06:48:41.077Z,99.99
2018-06-22T06:49:41.236Z,99.99
2018-06-22T06:50:41.161Z,99.99
2018-06-22T06:51:41.049Z,99.99
2018-06-22T06:52:41.103Z,99.99
2018-06-22T06:53:41.127Z,99.99
2018-06-22T06:54:41.089Z,99.99
2018-06-22T06:55:41.130Z,99.99
2018-06-22T06:56:41.182Z,99.99
2018-06-22T06:57:41.132Z,99.99
2018-06-22T06:58:41.148Z,99.99
2018-06-22T06:59:41.166Z,99.99
2018-06-22T07:00:41.085Z,99.99
2018-06-22T07:01:41.118Z,99.99
2018-06-22T07:02:41.043Z,99.99
2018-06-22T07:03:41.039Z,99.99
2018-06-22T07:04:41.066Z,99.99
2018-06-22T07:05:41.037Z,99.99
2018-06-22T07:06:41.131Z,99.99
2018-06-22T07:07:41.042Z,99.99
2018-06-22T07:08:41.042Z,99.99
2018-06-22T07:09:41.121Z,99.99
2018-06-22T07:10:41.133Z,99.99
2018-06-22T07:11:41.190Z,99.99
2018-06-22T07:12:41.163Z,99.99
2018-06-22T07:13:41.179Z,99.99
2018-06-22T07:14:41.110Z,99.78
2018-06-22T07:15:41.133Z,99.86
2018-06-22T07:16:41.183Z,99.83
2018-06-22T07:17:41.107Z,99.99
2018-06-22T07:18:41.126Z,99.99
2018-06-22T07:19:41.049Z,99.94
2018-06-22T07:20:41.143Z,99.70
2018-06-22T07:21:41.078Z,99.21
2018-06-22T07:22:41.137Z,98.37
2018-06-22T07:23:41.138Z,97.74
2018-06-22T07:24:41.057Z,97.26
2018-06-22T07:25:41.101Z,97.42
2018-06-22T07:26:41.136Z,97.42
2018-06-22T07:27:41.084Z,97.47
2018-06-22T07:28:41.140Z,97.50
2018-06-22T07:29:41.054Z,97.72
2018-06-22T07:30:41.089Z,97.91
2018-06-22T07:31:41.112Z,98.26
2018-06-22T07:32:41.156Z,98.12
2018-06-22T07:33:41.180Z,97.42
2018-06-22T07:34:41.091Z,96.85
2018-06-22T07:35:41.078Z,96.80
2018-06-22T07:36:41.158Z,97.12
2018-06-22T07:37:41.137Z,97.18
2018-06-22T07:38:41.082Z,97.07
2018-06-22T07:39:41.175Z,96.47
2018-06-22T07:40:41.131Z,96.74
2018-06-22T07:41:41.084Z,96.91
2018-06-22T07:42:41.122Z,97.34
2018-06-22T07:43:41.064Z,97.61
2018-06-22T07:44:41.130Z,97.99
2018-06-22T07:45:41.192Z,97.96
2018-06-22T07:46:41.141Z,98.04
2018-06-22T07:47:41.127Z,97.88
2018-06-22T07:48:41.086Z,98.10
2018-06-22T07:49:41.179Z,98.31
2018-06-22T07:50:41.132Z,98.66
2018-06-22T07:51:41.193Z,98.48
2018-06-22T07:52:41.207Z,98.64
2018-06-22T07:53:41.123Z,99.02
2018-06-22T07:54:41.192Z,99.10
2018-06-22T07:55:41.140Z,99.15
2018-06-22T07:56:41.168Z,99.13
2018-06-22T07:57:41.194Z,98.96
2018-06-22T07:58:41.143Z,98.94
2018-06-22T07:59:41.205Z,98.85
2018-06-22T08:00:41.159Z,98.72
2018-06-22T08:01:41.102Z,98.99
2018-06-22T08:02:41.162Z,98.96
2018-06-22T08:03:41.060Z,98.85
2018-06-22T08:04:41.103Z,99.23
2018-06-22T08:05:41.063Z,99.18
2018-06-22T08:06:41.161Z,98.66
2018-06-22T08:07:41.117Z,98.12
2018-06-22T08:08:41.142Z,98.02
2018-06-22T08:09:41.134Z,97.66
2018-06-22T08:10:41.171Z,96.80
2018-06-22T08:11:41.171Z,96.04
2018-06-22T08:12:41.047Z,95.56
2018-06-22T08:13:41.081Z,95.50
2018-06-22T08:14:41.085Z,95.23
2018-06-22T08:15:41.089Z,95.26
2018-06-22T08:16:41.168Z,94.93
2018-06-22T08:17:41.260Z,94.50
2018-06-22T08:18:41.091Z,95.18
2018-06-22T08:19:41.086Z,95.34
2018-06-22T08:20:41.174Z,95.28
2018-06-22T08:21:41.089Z,94.61
2018-06-22T08:22:41.174Z,94.37
2018-06-22T08:23:41.127Z,94.29
2018-06-22T08:24:41.093Z,94.61
2018-06-22T08:25:41.093Z,94.56
2018-06-22T08:26:41.179Z,94.50
2018-06-22T08:27:41.176Z,94.69
2018-06-22T08:28:41.119Z,95.18
2018-06-22T08:29:41.180Z,93.40
2018-06-22T08:30:41.139Z,93.85
2018-06-22T08:31:41.142Z,93.26
2018-06-22T08:32:41.141Z,93.24
2018-06-22T08:33:41.198Z,92.68
2018-06-22T08:34:41.118Z,92.01
2018-06-22T08:35:41.148Z,92.51
2018-06-22T08:36:41.187Z,91.52
2018-06-22T08:37:41.182Z,89.54
2018-06-22T08:38:41.125Z,90.34
2018-06-22T08:39:41.151Z,90.98
2018-06-22T08:40:41.146Z,89.29
2018-06-22T08:41:41.240Z,90.42
2018-06-22T08:42:41.148Z,91.09
2018-06-22T08:43:41.131Z,90.20
2018-06-22T08:44:41.132Z,90.90
2018-06-22T08:45:41.191Z,91.52
2018-06-22T08:46:41.204Z,91.25
2018-06-22T08:47:41.135Z,91.84
2018-06-22T08:48:41.191Z,92.38
2018-06-22T08:49:41.108Z,92.16
2018-06-22T08:50:41.155Z,92.16
2018-06-22T08:51:41.187Z,92.16
2018-06-22T08:52:41.137Z,92.51
2018-06-22T08:53:41.193Z,93.51
2018-06-22T08:54:41.198Z,93.02
2018-06-22T08:55:41.104Z,93.56
2018-06-22T08:56:41.143Z,93.48
2018-06-22T08:57:41.145Z,93.64
2018-06-22T08:58:41.115Z,93.40
2018-06-22T08:59:41.111Z,93.08
2018-06-22T09:00:41.140Z,92.01
2018-06-22T09:01:41.210Z,92.59
2018-06-22T09:02:41.240Z,92.43
2018-06-22T09:03:41.200Z,91.28
2018-06-22T09:04:41.166Z,91.11
2018-06-22T09:05:41.082Z,90.15
2018-06-22T09:06:41.080Z,90.15
2018-06-22T09:07:41.083Z,90.66
2018-06-22T09:08:41.122Z,91.14
2018-06-22T09:09:41.219Z,89.56
2018-06-22T09:10:41.252Z,89.59
2018-06-22T09:11:41.187Z,90.20
2018-06-22T09:13:41.202Z,88.09
2018-06-22T09:14:41.238Z,87.18
2018-06-22T09:15:41.217Z,87.48
2018-06-22T09:16:41.181Z,87.26
2018-06-22T09:17:41.203Z,86.76
2018-06-22T09:18:41.152Z,87.80
2018-06-22T09:19:41.311Z,87.93
2018-06-22T09:20:41.191Z,88.20
2018-06-22T09:21:41.227Z,88.71
2018-06-22T09:22:41.230Z,88.81
2018-06-22T09:23:41.227Z,89.91
2018-06-22T09:24:41.225Z,89.16
2018-06-22T09:25:41.227Z,90.31
2018-06-22T09:26:41.164Z,91.36
2018-06-22T09:27:41.239Z,92.68
2018-06-22T09:28:41.230Z,91.82
2018-06-22T09:29:41.230Z,92.16
2018-06-22T09:30:41.164Z,92.38
2018-06-22T09:31:41.185Z,91.92
2018-06-22T09:32:41.231Z,91.49
2018-06-22T09:33:41.192Z,91.09
2018-06-22T09:34:41.238Z,91.25
2018-06-22T09:35:41.170Z,91.49
2018-06-22T09:36:41.218Z,91.65
2018-06-22T09:37:41.163Z,91.28
2018-06-22T09:38:41.237Z,91.49
2018-06-22T09:39:41.169Z,91.60
2018-06-22T09:40:41.279Z,91.68
2018-06-22T09:41:41.170Z,91.97
2018-06-22T09:42:41.309Z,92.14
2018-06-22T09:43:41.174Z,91.95
2018-06-22T09:44:41.244Z,91.90
2018-06-22T09:45:41.245Z,91.92
2018-06-22T09:46:41.175Z,92.01
2018-06-22T09:47:41.247Z,91.38
2018-06-22T09:48:41.177Z,91.25
2018-06-22T09:49:41.177Z,90.71
2018-06-22T09:50:41.249Z,90.77
2018-06-22T09:51:41.280Z,90.20
2018-06-22T09:52:41.248Z,89.86
2018-06-22T09:53:41.270Z,90.02
2018-06-22T09:54:41.288Z,88.84
2018-06-22T09:55:41.179Z,88.04
2018-06-22T09:56:41.182Z,86.79
2018-06-22T09:57:41.180Z,85.88
2018-06-22T09:58:41.191Z,85.99
2018-06-22T09:59:41.254Z,84.42
2018-06-22T10:00:41.186Z,82.08
2018-06-22T10:01:41.279Z,82.48
2018-06-22T10:02:41.185Z,82.75
2018-06-22T10:03:41.211Z,83.70
2018-06-22T10:04:41.256Z,83.38
2018-06-22T10:05:41.258Z,83.22
2018-06-22T10:06:41.252Z,84.07
2018-06-22T10:07:41.189Z,83.81
2018-06-22T10:08:41.253Z,83.59
2018-06-22T10:09:41.189Z,83.14
2018-06-22T10:10:41.259Z,83.57
2018-06-22T10:11:41.225Z,83.81
2018-06-22T10:12:41.214Z,83.67
2018-06-22T10:13:41.286Z,83.91
2018-06-22T10:14:41.243Z,82.88
2018-06-22T10:15:41.299Z,83.36
2018-06-22T10:16:41.277Z,81.76
2018-06-22T10:17:41.265Z,80.92
2018-06-22T10:18:41.282Z,81.52
2018-06-22T10:19:41.271Z,81.52
2018-06-22T10:20:41.299Z,74.87
2018-06-22T10:21:41.203Z,74.94
2018-06-22T10:22:41.198Z,75.86
2018-06-22T10:23:41.271Z,75.84
2018-06-22T10:24:41.270Z,74.89
2018-06-22T10:25:41.201Z,75.39
2018-06-22T10:26:41.277Z,73.08
2018-06-22T10:27:41.270Z,75.81
2018-06-22T10:28:41.201Z,79.94
2018-06-22T10:29:41.306Z,81.32
2018-06-22T10:30:41.205Z,81.58
2018-06-22T10:31:41.192Z,82.37
2018-06-22T10:32:41.248Z,80.92
2018-06-22T10:33:41.272Z,80.18
2018-06-22T10:34:41.311Z,81.13
2018-06-22T10:35:41.231Z,80.76
2018-06-22T10:36:41.305Z,80.92
2018-06-22T10:37:41.254Z,79.73
2018-06-22T10:38:41.306Z,80.13
2018-06-22T10:39:41.234Z,79.41
2018-06-22T10:40:41.316Z,80.29
2018-06-22T10:41:41.280Z,78.89
2018-06-22T10:42:41.304Z,76.52
2018-06-22T10:43:41.310Z,75.73
2018-06-22T10:44:41.262Z,76.75
2018-06-22T10:45:41.327Z,77.09
2018-06-22T10:46:41.247Z,74.21
2018-06-22T10:47:41.255Z,74.84
2018-06-22T10:48:41.191Z,75.13
2018-06-22T10:49:41.190Z,75.84
2018-06-22T10:50:41.243Z,77.83
2018-06-22T10:51:41.313Z,76.94
2018-06-22T10:52:41.283Z,78.20
2018-06-22T10:53:41.244Z,80.02
2018-06-22T10:54:41.322Z,80.57
2018-06-22T10:55:41.267Z,82.67
2018-06-22T10:56:41.323Z,82.00
2018-06-22T10:57:41.319Z,83.99
2018-06-22T10:58:41.266Z,84.05
2018-06-22T10:59:41.360Z,85.13
2018-06-22T11:00:41.312Z,85.05
2018-06-22T11:01:41.322Z,84.71
2018-06-22T11:02:41.271Z,85.53
2018-06-22T11:03:41.312Z,85.77
2018-06-22T11:04:41.231Z,85.96
2018-06-22T11:05:41.311Z,86.01
2018-06-22T11:06:41.315Z,85.40
2018-06-22T11:07:41.310Z,85.21
2018-06-22T11:08:41.277Z,85.32
2018-06-22T11:09:41.270Z,84.34
2018-06-22T11:10:41.276Z,84.74
2018-06-22T11:11:41.226Z,83.28
2018-06-22T11:12:41.301Z,82.14
2018-06-22T11:13:41.310Z,82.96
2018-06-22T11:14:41.236Z,81.26
2018-06-22T11:15:41.301Z,82.16
2018-06-22T11:16:41.327Z,81.56
2018-06-22T11:17:41.303Z,82.11
2018-06-22T11:18:41.240Z,81.21
2018-06-22T11:19:41.251Z,82.00
2018-06-22T11:20:41.262Z,82.16
2018-06-22T11:21:41.212Z,81.16
2018-06-22T11:22:41.289Z,79.99
2018-06-22T11:23:41.234Z,80.57
2018-06-22T11:24:41.235Z,80.89
2018-06-22T11:25:41.193Z,80.41
2018-06-22T11:26:41.295Z,78.41
2018-06-22T11:27:41.292Z,79.31
2018-06-22T11:28:41.304Z,78.41
2018-06-22T11:29:41.308Z,77.39
2018-06-22T11:30:41.344Z,77.41
2018-06-22T11:31:41.258Z,78.33
2018-06-22T11:32:41.245Z,76.65
2018-06-22T11:33:41.221Z,76.70
2018-06-22T11:34:41.262Z,75.68
2018-06-22T11:35:41.378Z,76.44
2018-06-22T11:36:41.217Z,76.26
2018-06-22T11:37:41.229Z,74.55
2018-06-22T11:38:41.305Z,74.18
2018-06-22T11:39:41.226Z,74.84
2018-06-22T11:40:41.275Z,76.49
2018-06-22T11:41:41.252Z,74.42
2018-06-22T11:42:41.279Z,73.45
2018-06-22T11:43:41.253Z,74.36
2018-06-22T11:44:41.252Z,75.78
2018-06-22T11:45:41.320Z,72.83
2018-06-22T11:46:41.258Z,74.00
2018-06-22T11:47:41.256Z,73.69
2018-06-22T11:48:41.327Z,73.95
2018-06-22T11:49:41.257Z,71.28
2018-06-22T11:50:41.322Z,69.23
2018-06-22T11:51:41.347Z,69.62
2018-06-22T11:52:41.228Z,67.72
2018-06-22T11:53:41.329Z,68.81
2018-06-22T11:54:41.230Z,69.46
2018-06-22T11:55:41.361Z,71.28
2018-06-22T11:56:41.307Z,68.50
2018-06-22T11:57:41.271Z,66.09
2018-06-22T11:58:41.359Z,66.27
2018-06-22T11:59:41.299Z,66.53
2018-06-22T12:00:41.237Z,67.18
2018-06-22T12:01:41.394Z,67.54
2018-06-22T12:02:41.315Z,68.99
2018-06-22T12:03:41.287Z,67.36
2018-06-22T12:04:41.349Z,66.14
2018-06-22T12:05:41.343Z,65.06
2018-06-22T12:06:41.274Z,64.18
2018-06-22T12:07:41.307Z,65.24
2018-06-22T12:08:41.337Z,66.37
2018-06-22T12:09:41.342Z,66.06
2018-06-22T12:10:41.318Z,64.21
2018-06-22T12:11:41.311Z,63.15
2018-06-22T12:12:41.245Z,63.72
2018-06-22T12:13:41.364Z,63.95
2018-06-22T12:14:41.344Z,62.46
2018-06-22T12:15:41.311Z,63.59
2018-06-22T12:16:41.317Z,63.46
2018-06-22T12:17:41.285Z,64.85
2018-06-22T12:18:41.321Z,64.15
2018-06-22T12:19:41.245Z,65.65
2018-06-22T12:20:41.367Z,66.14
2018-06-22T12:21:41.313Z,66.22
2018-06-22T12:22:41.384Z,68.16
2018-06-22T12:23:41.242Z,69.57
2018-06-22T12:24:41.326Z,71.52
2018-06-22T12:25:41.249Z,72.09
2018-06-22T12:26:41.324Z,72.01
2018-06-22T12:27:41.358Z,72.43
2018-06-22T12:28:41.326Z,73.22
2018-06-22T12:29:41.271Z,72.20
2018-06-22T12:30:41.324Z,72.43
2018-06-22T12:31:41.333Z,72.93
2018-06-22T12:32:41.383Z,73.42
2018-06-22T12:33:41.332Z,74.66
2018-06-22T12:34:41.322Z,75.73
2018-06-22T12:35:41.324Z,73.61
2018-06-22T12:36:41.329Z,75.47
2018-06-22T12:37:41.332Z,74.76
2018-06-22T12:38:41.318Z,74.60
2018-06-22T12:39:41.294Z,74.52
2018-06-22T12:40:41.359Z,75.65
2018-06-22T12:41:41.262Z,74.76
2018-06-22T12:42:41.329Z,74.21
2018-06-22T12:43:41.377Z,71.62
2018-06-22T12:44:41.323Z,71.54
2018-06-22T12:45:41.359Z,72.80
2018-06-22T12:46:41.321Z,71.52
2018-06-22T12:47:41.335Z,72.90
2018-06-22T12:48:41.381Z,72.53
2018-06-22T12:49:41.362Z,70.32
2018-06-22T12:51:41.271Z,68.35
2018-06-22T12:52:41.326Z,67.31
2018-06-22T12:53:41.343Z,69.23
2018-06-22T12:54:41.397Z,69.15